sensor_id;sensor_type;location;lat;lon;timestamp;pressure;altitude;pressure_sealevel;temperature;humidity
8140;BME280;4111;50.972;7.072;2023-08-17T00:01:10;101239.88;;;22.54;100.00
8140;BME280;4111;50.972;7.072;2023-08-17T00:03:36;101243.22;;;22.96;100.00
8140;BME280;4111;50.972;7.072;2023-08-17T00:06:03;101239.50;;;23.41;100.00
8140;BME280;4111;50.972;7.072;2023-08-17T00:08:29;101247.03;;;23.49;99.85
8140;BME280;4111;50.972;7.072;2023-08-17T00:10:56;101251.78;;;23.48;98.69
8140;BME280;4111;50.972;7.072;2023-08-17T00:13:22;101252.56;;;23.49;98.21
8140;BME280;4111;50.972;7.072;2023-08-17T00:15:48;101252.56;;;23.40;97.73
8140;BME280;4111;50.972;7.072;2023-08-17T00:18:15;101253.06;;;23.42;97.43
8140;BME280;4111;50.972;7.072;2023-08-17T00:20:41;101254.44;;;23.22;97.02
8140;BME280;4111;50.972;7.072;2023-08-17T00:23:08;101251.34;;;22.61;98.95
8140;BME280;4111;50.972;7.072;2023-08-17T00:25:35;101257.72;;;22.25;100.00
8140;BME280;4111;50.972;7.072;2023-08-17T00:28:01;101263.91;;;22.08;100.00
8140;BME280;4111;50.972;7.072;2023-08-17T00:30:27;101268.25;;;22.01;100.00
8140;BME280;4111;50.972;7.072;2023-08-17T00:32:54;101265.56;;;21.95;100.00
8140;BME280;4111;50.972;7.072;2023-08-17T00:35:20;101265.41;;;21.78;100.00
8140;BME280;4111;50.972;7.072;2023-08-17T00:37:47;101265.63;;;21.68;100.00
8140;BME280;4111;50.972;7.072;2023-08-17T00:40:13;101266.75;;;22.17;100.00
8140;BME280;4111;50.972;7.072;2023-08-17T00:42:40;101269.44;;;22.67;100.00
8140;BME280;4111;50.972;7.072;2023-08-17T00:45:06;101268.63;;;22.98;100.00
8140;BME280;4111;50.972;7.072;2023-08-17T00:47:33;101273.06;;;22.99;99.67
8140;BME280;4111;50.972;7.072;2023-08-17T00:50:00;101274.44;;;22.88;98.92
8140;BME280;4111;50.972;7.072;2023-08-17T00:52:26;101273.44;;;22.84;98.72
8140;BME280;4111;50.972;7.072;2023-08-17T00:54:54;101265.53;;;22.68;98.49
8140;BME280;4111;50.972;7.072;2023-08-17T00:57:21;101264.28;;;22.52;98.47
8140;BME280;4111;50.972;7.072;2023-08-17T00:59:50;101263.84;;;22.36;98.46
8140;BME280;4111;50.972;7.072;2023-08-17T01:02:31;101261.84;;;22.14;99.26
8140;BME280;4111;50.972;7.072;2023-08-17T01:04:58;101273.25;;;21.98;100.00
8140;BME280;4111;50.972;7.072;2023-08-17T01:07:24;101266.72;;;21.94;100.00
8140;BME280;4111;50.972;7.072;2023-08-17T01:09:51;101267.63;;;21.90;100.00
8140;BME280;4111;50.972;7.072;2023-08-17T01:17:33;101268.41;;;22.18;100.00
8140;BME280;4111;50.972;7.072;2023-08-17T01:20:02;101265.72;;;22.27;100.00
8140;BME280;4111;50.972;7.072;2023-08-17T01:22:32;101273.06;;;22.31;99.59
8140;BME280;4111;50.972;7.072;2023-08-17T01:24:59;101273.22;;;22.26;99.16
8140;BME280;4111;50.972;7.072;2023-08-17T01:27:26;101271.44;;;22.30;99.13
8140;BME280;4111;50.972;7.072;2023-08-17T01:29:53;101271.44;;;22.30;98.04
8140;BME280;4111;50.972;7.072;2023-08-17T01:32:29;101273.88;;;21.95;97.72
8140;BME280;4111;50.972;7.072;2023-08-17T01:35:09;101276.88;;;21.71;98.33
8140;BME280;4111;50.972;7.072;2023-08-17T01:37:39;101279.34;;;21.59;99.50
8140;BME280;4111;50.972;7.072;2023-08-17T01:40:07;101277.13;;;21.47;99.78
8140;BME280;4111;50.972;7.072;2023-08-17T01:42:36;101281.00;;;21.46;99.96
8140;BME280;4111;50.972;7.072;2023-08-17T01:45:03;101281.06;;;21.41;100.00
8140;BME280;4111;50.972;7.072;2023-08-17T01:47:30;101278.09;;;21.37;100.00
8140;BME280;4111;50.972;7.072;2023-08-17T01:49:56;101278.28;;;21.13;100.00
8140;BME280;4111;50.972;7.072;2023-08-17T01:52:27;101281.97;;;21.23;100.00
8140;BME280;4111;50.972;7.072;2023-08-17T01:54:54;101280.78;;;21.70;100.00
8140;BME280;4111;50.972;7.072;2023-08-17T01:57:20;101269.69;;;21.98;98.60
8140;BME280;4111;50.972;7.072;2023-08-17T01:59:47;101272.47;;;22.21;96.23
8140;BME280;4111;50.972;7.072;2023-08-17T02:02:13;101278.59;;;22.31;95.15
8140;BME280;4111;50.972;7.072;2023-08-17T02:04:41;101278.59;;;22.31;93.89
8140;BME280;4111;50.972;7.072;2023-08-17T02:07:07;101283.22;;;22.36;93.48
8140;BME280;4111;50.972;7.072;2023-08-17T02:09:34;101277.78;;;22.31;93.33
8140;BME280;4111;50.972;7.072;2023-08-17T02:12:00;101272.00;;;22.05;93.82
8140;BME280;4111;50.972;7.072;2023-08-17T02:14:26;101279.13;;;21.83;93.94
8140;BME280;4111;50.972;7.072;2023-08-17T02:16:53;101280.59;;;21.67;94.87
8140;BME280;4111;50.972;7.072;2023-08-17T02:19:19;101281.41;;;21.53;95.35
8140;BME280;4111;50.972;7.072;2023-08-17T02:21:47;101271.66;;;21.42;95.94
8140;BME280;4111;50.972;7.072;2023-08-17T02:24:13;101273.38;;;21.38;97.06
8140;BME280;4111;50.972;7.072;2023-08-17T02:26:40;101272.38;;;21.34;97.30
8140;BME280;4111;50.972;7.072;2023-08-17T02:29:06;101258.47;;;21.25;97.37
8140;BME280;4111;50.972;7.072;2023-08-17T02:31:33;101262.34;;;21.66;97.72
8140;BME280;4111;50.972;7.072;2023-08-17T02:33:59;101258.94;;;22.19;96.63
8140;BME280;4111;50.972;7.072;2023-08-17T02:36:31;101258.81;;;22.38;94.13
8140;BME280;4111;50.972;7.072;2023-08-17T02:38:58;101250.72;;;22.42;93.08
8140;BME280;4111;50.972;7.072;2023-08-17T02:41:25;101250.78;;;22.28;92.59
8140;BME280;4111;50.972;7.072;2023-08-17T02:43:51;101248.72;;;22.20;92.88
8140;BME280;4111;50.972;7.072;2023-08-17T02:46:18;101233.00;;;22.06;93.00
8140;BME280;4111;50.972;7.072;2023-08-17T02:48:44;101242.47;;;21.77;93.65
8140;BME280;4111;50.972;7.072;2023-08-17T02:51:10;101240.88;;;21.63;93.80
8140;BME280;4111;50.972;7.072;2023-08-17T02:53:37;101238.00;;;21.54;95.14
8140;BME280;4111;50.972;7.072;2023-08-17T02:56:03;101227.59;;;21.51;95.09
8140;BME280;4111;50.972;7.072;2023-08-17T02:58:30;101225.53;;;21.43;95.36
8140;BME280;4111;50.972;7.072;2023-08-17T03:00:56;101216.69;;;21.27;96.37
8140;BME280;4111;50.972;7.072;2023-08-17T03:03:23;101216.31;;;21.19;97.08
8140;BME280;4111;50.972;7.072;2023-08-17T03:05:49;101219.47;;;20.99;97.85
8140;BME280;4111;50.972;7.072;2023-08-17T03:08:15;101217.31;;;20.96;98.61
8140;BME280;4111;50.972;7.072;2023-08-17T03:10:42;101215.06;;;20.98;98.63
8140;BME280;4111;50.972;7.072;2023-08-17T03:13:08;101211.00;;;21.09;99.25
8140;BME280;4111;50.972;7.072;2023-08-17T03:15:35;101212.63;;;21.52;99.20
8140;BME280;4111;50.972;7.072;2023-08-17T03:18:06;101214.06;;;21.63;97.31
8140;BME280;4111;50.972;7.072;2023-08-17T03:20:33;101214.53;;;21.79;96.39
8140;BME280;4111;50.972;7.072;2023-08-17T03:22:59;101217.25;;;21.93;95.88
8140;BME280;4111;50.972;7.072;2023-08-17T03:25:26;101214.13;;;22.08;94.93
8140;BME280;4111;50.972;7.072;2023-08-17T03:27:52;101218.47;;;22.01;94.31
8140;BME280;4111;50.972;7.072;2023-08-17T03:30:19;101221.19;;;21.78;94.33
8140;BME280;4111;50.972;7.072;2023-08-17T03:32:45;101219.91;;;21.48;95.16
8140;BME280;4111;50.972;7.072;2023-08-17T03:35:11;101222.03;;;21.37;95.77
8140;BME280;4111;50.972;7.072;2023-08-17T03:37:39;101230.22;;;21.28;96.60
8140;BME280;4111;50.972;7.072;2023-08-17T03:40:06;101224.69;;;21.14;97.79
8140;BME280;4111;50.972;7.072;2023-08-17T03:42:32;101223.78;;;21.05;98.65
8140;BME280;4111;50.972;7.072;2023-08-17T03:44:59;101233.66;;;20.92;99.46
8140;BME280;4111;50.972;7.072;2023-08-17T03:47:25;101223.03;;;20.86;100.00
8140;BME280;4111;50.972;7.072;2023-08-17T03:49:52;101231.44;;;21.08;100.00
8140;BME280;4111;50.972;7.072;2023-08-17T03:52:19;101238.63;;;21.37;99.83
8140;BME280;4111;50.972;7.072;2023-08-17T03:54:45;101245.75;;;21.38;98.52
8140;BME280;4111;50.972;7.072;2023-08-17T03:57:12;101244.03;;;21.42;97.07
8140;BME280;4111;50.972;7.072;2023-08-17T03:59:38;101239.13;;;21.39;97.02
8140;BME280;4111;50.972;7.072;2023-08-17T04:02:06;101253.56;;;21.50;96.80
8140;BME280;4111;50.972;7.072;2023-08-17T04:04:32;101253.75;;;21.39;96.21
8140;BME280;4111;50.972;7.072;2023-08-17T04:06:59;101258.94;;;20.99;97.35
8140;BME280;4111;50.972;7.072;2023-08-17T04:09:25;101257.16;;;20.76;98.41
8140;BME280;4111;50.972;7.072;2023-08-17T04:11:52;101260.41;;;20.64;99.72
8140;BME280;4111;50.972;7.072;2023-08-17T04:14:18;101264.63;;;20.56;100.00
8140;BME280;4111;50.972;7.072;2023-08-17T04:16:45;101270.25;;;20.32;100.00
8140;BME280;4111;50.972;7.072;2023-08-17T04:19:12;101269.28;;;20.23;100.00
8140;BME280;4111;50.972;7.072;2023-08-17T04:21:38;101269.13;;;20.33;100.00
8140;BME280;4111;50.972;7.072;2023-08-17T04:24:05;101266.47;;;20.28;100.00
8140;BME280;4111;50.972;7.072;2023-08-17T04:26:31;101268.09;;;20.29;100.00
8140;BME280;4111;50.972;7.072;2023-08-17T04:28:58;101272.63;;;20.20;100.00
8140;BME280;4111;50.972;7.072;2023-08-17T04:31:24;101269.75;;;20.11;100.00
8140;BME280;4111;50.972;7.072;2023-08-17T04:33:51;101278.91;;;20.07;100.00
8140;BME280;4111;50.972;7.072;2023-08-17T04:36:18;101275.84;;;20.46;100.00
8140;BME280;4111;50.972;7.072;2023-08-17T04:38:44;101272.63;;;20.58;100.00
8140;BME280;4111;50.972;7.072;2023-08-17T04:41:11;101276.47;;;20.76;100.00
8140;BME280;4111;50.972;7.072;2023-08-17T04:43:37;101281.22;;;20.89;100.00
8140;BME280;4111;50.972;7.072;2023-08-17T04:46:03;101280.84;;;21.10;100.00
8140;BME280;4111;50.972;7.072;2023-08-17T04:48:30;101282.91;;;21.32;100.00
8140;BME280;4111;50.972;7.072;2023-08-17T04:50:57;101293.94;;;21.32;98.61
8140;BME280;4111;50.972;7.072;2023-08-17T04:53:23;101288.88;;;20.92;98.25
8140;BME280;4111;50.972;7.072;2023-08-17T04:55:49;101295.34;;;20.69;98.92
8140;BME280;4111;50.972;7.072;2023-08-17T04:58:16;101289.13;;;20.44;100.00
8140;BME280;4111;50.972;7.072;2023-08-17T05:00:42;101295.44;;;20.45;100.00
8140;BME280;4111;50.972;7.072;2023-08-17T05:03:09;101301.47;;;20.28;100.00
8140;BME280;4111;50.972;7.072;2023-08-17T05:05:51;101297.22;;;20.35;100.00
8140;BME280;4111;50.972;7.072;2023-08-17T05:08:18;101295.38;;;20.31;100.00
8140;BME280;4111;50.972;7.072;2023-08-17T05:10:45;101298.94;;;20.31;100.00
8140;BME280;4111;50.972;7.072;2023-08-17T05:13:11;101296.41;;;20.35;100.00
8140;BME280;4111;50.972;7.072;2023-08-17T05:15:37;101288.22;;;20.30;100.00
8140;BME280;4111;50.972;7.072;2023-08-17T05:18:04;101291.88;;;20.25;100.00
8140;BME280;4111;50.972;7.072;2023-08-17T05:20:31;101294.34;;;20.27;100.00
8140;BME280;4111;50.972;7.072;2023-08-17T05:22:57;101302.91;;;20.25;100.00
8140;BME280;4111;50.972;7.072;2023-08-17T05:25:24;101306.19;;;20.27;100.00
8140;BME280;4111;50.972;7.072;2023-08-17T05:27:52;101294.75;;;20.34;100.00
8140;BME280;4111;50.972;7.072;2023-08-17T05:30:19;101297.75;;;20.37;100.00
8140;BME280;4111;50.972;7.072;2023-08-17T05:32:46;101297.47;;;20.39;100.00
8140;BME280;4111;50.972;7.072;2023-08-17T05:35:13;101304.41;;;20.36;100.00
8140;BME280;4111;50.972;7.072;2023-08-17T05:37:39;101302.91;;;20.25;100.00
8140;BME280;4111;50.972;7.072;2023-08-17T05:40:06;101309.69;;;20.33;100.00
8140;BME280;4111;50.972;7.072;2023-08-17T05:42:35;101313.94;;;20.25;100.00
8140;BME280;4111;50.972;7.072;2023-08-17T05:45:01;101307.22;;;20.31;100.00
8140;BME280;4111;50.972;7.072;2023-08-17T05:47:27;101310.84;;;20.46;100.00
8140;BME280;4111;50.972;7.072;2023-08-17T05:49:54;101310.34;;;20.44;100.00
8140;BME280;4111;50.972;7.072;2023-08-17T05:52:20;101313.19;;;20.38;100.00
8140;BME280;4111;50.972;7.072;2023-08-17T05:54:47;101317.00;;;20.43;100.00
8140;BME280;4111;50.972;7.072;2023-08-17T05:57:13;101311.53;;;20.37;100.00
8140;BME280;4111;50.972;7.072;2023-08-17T05:59:40;101315.59;;;20.26;100.00
8140;BME280;4111;50.972;7.072;2023-08-17T06:02:06;101318.78;;;20.33;100.00
8140;BME280;4111;50.972;7.072;2023-08-17T06:04:32;101309.91;;;20.36;100.00
8140;BME280;4111;50.972;7.072;2023-08-17T06:06:59;101308.19;;;20.40;100.00
8140;BME280;4111;50.972;7.072;2023-08-17T06:09:25;101310.56;;;20.47;100.00
8140;BME280;4111;50.972;7.072;2023-08-17T06:11:52;101308.56;;;20.53;100.00
8140;BME280;4111;50.972;7.072;2023-08-17T06:14:18;101310.41;;;20.57;100.00
8140;BME280;4111;50.972;7.072;2023-08-17T06:16:44;101304.06;;;20.57;100.00
8140;BME280;4111;50.972;7.072;2023-08-17T06:19:11;101307.44;;;20.54;100.00
8140;BME280;4111;50.972;7.072;2023-08-17T06:21:37;101314.88;;;20.53;100.00
8140;BME280;4111;50.972;7.072;2023-08-17T06:24:04;101302.91;;;20.63;100.00
8140;BME280;4111;50.972;7.072;2023-08-17T06:26:31;101304.53;;;20.64;100.00
8140;BME280;4111;50.972;7.072;2023-08-17T06:28:57;101301.69;;;20.69;100.00
8140;BME280;4111;50.972;7.072;2023-08-17T06:31:23;101304.69;;;20.54;100.00
8140;BME280;4111;50.972;7.072;2023-08-17T06:33:54;101306.81;;;20.57;100.00
8140;BME280;4111;50.972;7.072;2023-08-17T06:36:20;101305.34;;;20.65;100.00
8140;BME280;4111;50.972;7.072;2023-08-17T06:38:47;101307.19;;;20.69;100.00
8140;BME280;4111;50.972;7.072;2023-08-17T06:41:15;101310.41;;;20.76;100.00
8140;BME280;4111;50.972;7.072;2023-08-17T06:43:42;101315.19;;;20.71;100.00
8140;BME280;4111;50.972;7.072;2023-08-17T06:46:08;101314.19;;;20.80;100.00
8140;BME280;4111;50.972;7.072;2023-08-17T06:48:35;101311.97;;;20.83;100.00
8140;BME280;4111;50.972;7.072;2023-08-17T06:51:01;101315.47;;;20.88;100.00
8140;BME280;4111;50.972;7.072;2023-08-17T06:53:30;101321.50;;;20.90;100.00
8140;BME280;4111;50.972;7.072;2023-08-17T06:55:57;101316.72;;;20.96;100.00
8140;BME280;4111;50.972;7.072;2023-08-17T06:58:28;101312.28;;;20.95;100.00
8140;BME280;4111;50.972;7.072;2023-08-17T07:00:54;101315.84;;;20.82;100.00
8140;BME280;4111;50.972;7.072;2023-08-17T07:03:20;101314.03;;;20.91;100.00
8140;BME280;4111;50.972;7.072;2023-08-17T07:05:47;101317.75;;;21.00;100.00
8140;BME280;4111;50.972;7.072;2023-08-17T07:08:14;101316.94;;;20.99;100.00
8140;BME280;4111;50.972;7.072;2023-08-17T07:10:40;101320.56;;;20.95;100.00
8140;BME280;4111;50.972;7.072;2023-08-17T07:13:07;101321.78;;;20.89;100.00
8140;BME280;4111;50.972;7.072;2023-08-17T07:15:33;101319.66;;;20.86;100.00
8140;BME280;4111;50.972;7.072;2023-08-17T07:18:00;101322.81;;;20.93;100.00
8140;BME280;4111;50.972;7.072;2023-08-17T07:20:26;101325.09;;;21.05;100.00
8140;BME280;4111;50.972;7.072;2023-08-17T07:22:53;101324.72;;;21.11;100.00
8140;BME280;4111;50.972;7.072;2023-08-17T07:25:19;101323.50;;;21.17;100.00
8140;BME280;4111;50.972;7.072;2023-08-17T07:27:45;101325.13;;;21.18;100.00
8140;BME280;4111;50.972;7.072;2023-08-17T07:30:12;101325.13;;;21.18;100.00
8140;BME280;4111;50.972;7.072;2023-08-17T07:32:39;101327.81;;;21.24;100.00
8140;BME280;4111;50.972;7.072;2023-08-17T07:35:06;101333.25;;;21.29;100.00
8140;BME280;4111;50.972;7.072;2023-08-17T07:37:32;101339.28;;;21.31;100.00
8140;BME280;4111;50.972;7.072;2023-08-17T07:40:00;101333.34;;;21.37;100.00
8140;BME280;4111;50.972;7.072;2023-08-17T07:42:29;101340.97;;;21.46;100.00
8140;BME280;4111;50.972;7.072;2023-08-17T07:44:56;101336.88;;;21.43;100.00
8140;BME280;4111;50.972;7.072;2023-08-17T07:47:22;101346.84;;;21.25;100.00
8140;BME280;4111;50.972;7.072;2023-08-17T07:49:48;101344.91;;;21.26;100.00
8140;BME280;4111;50.972;7.072;2023-08-17T07:52:15;101350.09;;;21.13;100.00
8140;BME280;4111;50.972;7.072;2023-08-17T07:54:42;101344.28;;;21.15;100.00
8140;BME280;4111;50.972;7.072;2023-08-17T07:57:08;101348.06;;;21.19;100.00
8140;BME280;4111;50.972;7.072;2023-08-17T07:59:35;101351.00;;;21.23;100.00
8140;BME280;4111;50.972;7.072;2023-08-17T08:02:01;101347.56;;;21.31;100.00
8140;BME280;4111;50.972;7.072;2023-08-17T08:04:27;101359.72;;;21.30;100.00
8140;BME280;4111;50.972;7.072;2023-08-17T08:06:54;101359.13;;;21.33;100.00
8140;BME280;4111;50.972;7.072;2023-08-17T08:09:20;101358.09;;;21.29;100.00
8140;BME280;4111;50.972;7.072;2023-08-17T08:11:47;101359.13;;;21.33;100.00
8140;BME280;4111;50.972;7.072;2023-08-17T08:14:13;101350.16;;;21.41;100.00
8140;BME280;4111;50.972;7.072;2023-08-17T08:16:40;101354.84;;;21.41;100.00
8140;BME280;4111;50.972;7.072;2023-08-17T08:19:06;101355.06;;;21.44;100.00
8140;BME280;4111;50.972;7.072;2023-08-17T08:21:33;101365.94;;;21.54;100.00
8140;BME280;4111;50.972;7.072;2023-08-17T08:23:59;101358.88;;;21.62;100.00
8140;BME280;4111;50.972;7.072;2023-08-17T08:26:25;101358.56;;;21.64;100.00
8140;BME280;4111;50.972;7.072;2023-08-17T08:28:52;101361.34;;;21.64;100.00
8140;BME280;4111;50.972;7.072;2023-08-17T08:31:18;101356.31;;;21.52;100.00
8140;BME280;4111;50.972;7.072;2023-08-17T08:33:45;101356.72;;;21.45;100.00
8140;BME280;4111;50.972;7.072;2023-08-17T08:36:11;101345.03;;;21.48;100.00
8140;BME280;4111;50.972;7.072;2023-08-17T08:38:38;101352.13;;;21.54;100.00
8140;BME280;4111;50.972;7.072;2023-08-17T08:41:05;101345.91;;;21.63;100.00
8140;BME280;4111;50.972;7.072;2023-08-17T08:43:35;101343.94;;;21.63;100.00
8140;BME280;4111;50.972;7.072;2023-08-17T08:46:01;101348.16;;;21.61;100.00
8140;BME280;4111;50.972;7.072;2023-08-17T08:48:28;101348.75;;;21.57;100.00
8140;BME280;4111;50.972;7.072;2023-08-17T08:50:55;101342.19;;;21.67;100.00
8140;BME280;4111;50.972;7.072;2023-08-17T08:53:37;101341.78;;;21.74;100.00
8140;BME280;4111;50.972;7.072;2023-08-17T08:56:04;101336.47;;;21.77;100.00
8140;BME280;4111;50.972;7.072;2023-08-17T08:58:36;101342.69;;;21.83;100.00
8140;BME280;4111;50.972;7.072;2023-08-17T09:01:03;101338.00;;;21.84;100.00
8140;BME280;4111;50.972;7.072;2023-08-17T09:03:35;101334.41;;;21.83;100.00
8140;BME280;4111;50.972;7.072;2023-08-17T09:06:03;101339.44;;;21.81;100.00
8140;BME280;4111;50.972;7.072;2023-08-17T09:08:30;101330.84;;;21.83;100.00
8140;BME280;4111;50.972;7.072;2023-08-17T09:10:57;101330.53;;;21.84;100.00
8140;BME280;4111;50.972;7.072;2023-08-17T09:13:24;101336.44;;;21.91;100.00
8140;BME280;4111;50.972;7.072;2023-08-17T09:15:50;101326.41;;;21.95;100.00
8140;BME280;4111;50.972;7.072;2023-08-17T09:18:18;101337.16;;;21.97;100.00
8140;BME280;4111;50.972;7.072;2023-08-17T09:20:46;101335.22;;;21.97;100.00
8140;BME280;4111;50.972;7.072;2023-08-17T09:23:16;101330.91;;;21.91;100.00
8140;BME280;4111;50.972;7.072;2023-08-17T09:25:44;101325.91;;;21.93;100.00
8140;BME280;4111;50.972;7.072;2023-08-17T09:28:12;101326.91;;;21.97;100.00
8140;BME280;4111;50.972;7.072;2023-08-17T09:31:01;101331.94;;;21.95;100.00
8140;BME280;4111;50.972;7.072;2023-08-17T09:33:31;101334.41;;;21.97;100.00
8140;BME280;4111;50.972;7.072;2023-08-17T09:35:59;101329.50;;;21.94;100.00
8140;BME280;4111;50.972;7.072;2023-08-17T09:38:26;101317.59;;;21.93;100.00
8140;BME280;4111;50.972;7.072;2023-08-17T09:40:54;101328.66;;;21.93;100.00
8140;BME280;4111;50.972;7.072;2023-08-17T09:43:21;101329.28;;;21.90;100.00
8140;BME280;4111;50.972;7.072;2023-08-17T09:45:48;101326.03;;;21.88;100.00
8140;BME280;4111;50.972;7.072;2023-08-17T09:48:17;101326.41;;;21.95;100.00
8140;BME280;4111;50.972;7.072;2023-08-17T09:50:45;101322.53;;;21.96;100.00
8140;BME280;4111;50.972;7.072;2023-08-17T09:53:13;101328.34;;;21.95;100.00
8140;BME280;4111;50.972;7.072;2023-08-17T09:55:41;101320.88;;;21.95;100.00
8140;BME280;4111;50.972;7.072;2023-08-17T09:58:08;101321.72;;;21.96;100.00
8140;BME280;4111;50.972;7.072;2023-08-17T10:00:35;101322.41;;;22.02;100.00
8140;BME280;4111;50.972;7.072;2023-08-17T10:03:02;101319.63;;;22.02;100.00
8140;BME280;4111;50.972;7.072;2023-08-17T10:05:38;101317.38;;;22.04;100.00
8140;BME280;4111;50.972;7.072;2023-08-17T10:08:06;101327.81;;;22.07;100.00
8140;BME280;4111;50.972;7.072;2023-08-17T10:10:35;101323.09;;;22.07;100.00
8140;BME280;4111;50.972;7.072;2023-08-17T10:13:12;101317.38;;;22.04;100.00
8140;BME280;4111;50.972;7.072;2023-08-17T10:16:01;101313.09;;;21.97;100.00
8140;BME280;4111;50.972;7.072;2023-08-17T10:18:35;101317.50;;;21.98;100.00
8140;BME280;4111;50.972;7.072;2023-08-17T10:21:10;101317.38;;;22.04;100.00
8140;BME280;4111;50.972;7.072;2023-08-17T10:23:39;101314.50;;;22.09;100.00
8140;BME280;4111;50.972;7.072;2023-08-17T10:26:08;101317.16;;;22.14;100.00
8140;BME280;4111;50.972;7.072;2023-08-17T10:28:35;101320.44;;;22.16;100.00
8140;BME280;4111;50.972;7.072;2023-08-17T10:31:01;101312.00;;;22.21;100.00
8140;BME280;4111;50.972;7.072;2023-08-17T10:33:28;101318.59;;;22.25;100.00
8140;BME280;4111;50.972;7.072;2023-08-17T10:35:55;101319.19;;;22.22;100.00
8140;BME280;4111;50.972;7.072;2023-08-17T10:38:22;101324.72;;;22.22;100.00
8140;BME280;4111;50.972;7.072;2023-08-17T10:41:08;101309.56;;;22.33;100.00
8140;BME280;4111;50.972;7.072;2023-08-17T10:43:53;101319.13;;;22.50;100.00
8140;BME280;4111;50.972;7.072;2023-08-17T10:46:19;101313.75;;;22.67;100.00
8140;BME280;4111;50.972;7.072;2023-08-17T10:48:46;101316.94;;;22.83;100.00
8140;BME280;4111;50.972;7.072;2023-08-17T10:51:12;101320.75;;;22.96;100.00
8140;BME280;4111;50.972;7.072;2023-08-17T10:53:43;101315.88;;;22.93;99.39
8140;BME280;4111;50.972;7.072;2023-08-17T10:56:12;101314.72;;;22.94;98.71
8140;BME280;4111;50.972;7.072;2023-08-17T10:58:42;101316.47;;;22.90;98.13
8140;BME280;4111;50.972;7.072;2023-08-17T11:01:09;101318.63;;;22.93;98.22
8140;BME280;4111;50.972;7.072;2023-08-17T11:03:36;101318.47;;;22.98;98.97
8140;BME280;4111;50.972;7.072;2023-08-17T11:06:16;101325.66;;;22.99;98.75
8140;BME280;4111;50.972;7.072;2023-08-17T11:08:52;101320.44;;;22.97;98.82
8140;BME280;4111;50.972;7.072;2023-08-17T11:11:20;101322.28;;;23.02;98.94
8140;BME280;4111;50.972;7.072;2023-08-17T11:13:48;101322.09;;;22.99;98.23
8140;BME280;4111;50.972;7.072;2023-08-17T11:16:16;101322.28;;;23.02;98.18
8140;BME280;4111;50.972;7.072;2023-08-17T11:18:45;101326.69;;;23.03;97.81
8140;BME280;4111;50.972;7.072;2023-08-17T11:21:12;101318.38;;;23.03;97.71
8140;BME280;4111;50.972;7.072;2023-08-17T11:23:45;101322.78;;;23.04;97.57
8140;BME280;4111;50.972;7.072;2023-08-17T11:26:15;101320.50;;;23.06;97.67
8140;BME280;4111;50.972;7.072;2023-08-17T11:28:42;101323.34;;;23.15;97.29
8140;BME280;4111;50.972;7.072;2023-08-17T11:31:12;101317.16;;;23.18;96.78
8140;BME280;4111;50.972;7.072;2023-08-17T11:33:39;101308.53;;;23.20;96.43
8140;BME280;4111;50.972;7.072;2023-08-17T11:36:08;101308.25;;;23.30;96.34
8140;BME280;4111;50.972;7.072;2023-08-17T11:38:39;101308.44;;;23.33;95.62
8140;BME280;4111;50.972;7.072;2023-08-17T11:41:07;101312.50;;;23.36;95.98
8140;BME280;4111;50.972;7.072;2023-08-17T11:43:44;101322.34;;;23.42;94.83
8140;BME280;4111;50.972;7.072;2023-08-17T11:46:11;101320.69;;;23.41;93.57
8140;BME280;4111;50.972;7.072;2023-08-17T11:48:42;101322.84;;;23.44;93.27
8140;BME280;4111;50.972;7.072;2023-08-17T11:51:08;101313.88;;;23.47;93.54
8140;BME280;4111;50.972;7.072;2023-08-17T11:53:36;101310.00;;;23.57;93.01
8140;BME280;4111;50.972;7.072;2023-08-17T11:56:03;101316.22;;;23.63;92.84
8140;BME280;4111;50.972;7.072;2023-08-17T11:58:51;101314.13;;;23.77;92.58
8140;BME280;4111;50.972;7.072;2023-08-17T12:01:17;101310.69;;;23.71;91.24
8140;BME280;4111;50.972;7.072;2023-08-17T12:03:45;101310.25;;;23.78;90.83
8140;BME280;4111;50.972;7.072;2023-08-17T12:06:12;101301.13;;;23.78;91.17
8140;BME280;4111;50.972;7.072;2023-08-17T12:08:42;101301.44;;;23.85;91.10
8140;BME280;4111;50.972;7.072;2023-08-17T12:11:12;101299.69;;;23.98;91.01
8140;BME280;4111;50.972;7.072;2023-08-17T12:13:38;101311.44;;;23.94;89.88
8140;BME280;4111;50.972;7.072;2023-08-17T12:16:05;101302.97;;;24.00;90.00
8140;BME280;4111;50.972;7.072;2023-08-17T12:18:33;101310.78;;;23.98;89.25
8140;BME280;4111;50.972;7.072;2023-08-17T12:21:00;101311.78;;;24.02;89.06
8140;BME280;4111;50.972;7.072;2023-08-17T12:23:27;101310.47;;;24.08;89.58
8140;BME280;4111;50.972;7.072;2023-08-17T12:25:54;101298.88;;;24.06;89.24
8140;BME280;4111;50.972;7.072;2023-08-17T12:28:22;101301.00;;;24.09;89.11
8140;BME280;4111;50.972;7.072;2023-08-17T12:30:57;101302.16;;;24.08;89.39
8140;BME280;4111;50.972;7.072;2023-08-17T12:33:24;101312.44;;;24.07;89.06
8140;BME280;4111;50.972;7.072;2023-08-17T12:35:50;101313.06;;;24.13;88.74
8140;BME280;4111;50.972;7.072;2023-08-17T12:38:17;101303.94;;;24.12;89.77
8140;BME280;4111;50.972;7.072;2023-08-17T12:40:43;101303.94;;;24.12;89.17
8140;BME280;4111;50.972;7.072;2023-08-17T12:43:10;101303.97;;;24.21;89.13
8140;BME280;4111;50.972;7.072;2023-08-17T12:45:41;101301.81;;;24.18;88.69
8140;BME280;4111;50.972;7.072;2023-08-17T12:48:07;101306.56;;;24.18;88.54
8140;BME280;4111;50.972;7.072;2023-08-17T12:50:34;101305.41;;;24.19;88.10
8140;BME280;4111;50.972;7.072;2023-08-17T12:53:00;101311.63;;;24.15;88.13
8140;BME280;4111;50.972;7.072;2023-08-17T12:55:27;101302.63;;;24.10;87.96
8140;BME280;4111;50.972;7.072;2023-08-17T12:57:53;101304.44;;;24.14;87.79
8140;BME280;4111;50.972;7.072;2023-08-17T13:00:20;101304.59;;;24.18;87.83
8140;BME280;4111;50.972;7.072;2023-08-17T13:02:46;101293.00;;;24.16;88.79
8140;BME280;4111;50.972;7.072;2023-08-17T13:05:15;101301.69;;;24.23;89.02
8140;BME280;4111;50.972;7.072;2023-08-17T13:07:42;101299.41;;;24.25;88.25
8140;BME280;4111;50.972;7.072;2023-08-17T13:10:08;101298.09;;;24.31;87.92
8140;BME280;4111;50.972;7.072;2023-08-17T13:12:35;101303.63;;;24.31;87.26